sensor_id;sensor_type;location;lat;lon;timestamp;temperature;humidity
74336;DHT22;62755;-33.398;-70.572;2022-12-29T00:00:24;26.90;30.00
74336;DHT22;62755;-33.398;-70.572;2022-12-29T00:02:53;26.90;30.10
74336;DHT22;62755;-33.398;-70.572;2022-12-29T00:05:24;26.90;30.20
74336;DHT22;62755;-33.398;-70.572;2022-12-29T00:07:56;26.90;30.30
74336;DHT22;62755;-33.398;-70.572;2022-12-29T00:10:25;26.90;30.40
74336;DHT22;62755;-33.398;-70.572;2022-12-29T00:12:55;26.90;30.50
74336;DHT22;62755;-33.398;-70.572;2022-12-29T00:15:46;26.90;30.50
74336;DHT22;62755;-33.398;-70.572;2022-12-29T00:18:16;26.80;31.00
74336;DHT22;62755;-33.398;-70.572;2022-12-29T00:20:45;26.70;31.10
74336;DHT22;62755;-33.398;-70.572;2022-12-29T00:23:33;26.60;31.10
74336;DHT22;62755;-33.398;-70.572;2022-12-29T00:26:25;26.60;31.40
74336;DHT22;62755;-33.398;-70.572;2022-12-29T00:29:11;26.50;31.60
74336;DHT22;62755;-33.398;-70.572;2022-12-29T00:31:57;26.50;31.70
74336;DHT22;62755;-33.398;-70.572;2022-12-29T00:34:39;26.40;31.80
74336;DHT22;62755;-33.398;-70.572;2022-12-29T00:37:26;26.40;31.90
74336;DHT22;62755;-33.398;-70.572;2022-12-29T00:40:10;26.40;32.20
74336;DHT22;62755;-33.398;-70.572;2022-12-29T00:42:56;26.40;32.70
74336;DHT22;62755;-33.398;-70.572;2022-12-29T00:45:41;26.30;32.60
74336;DHT22;62755;-33.398;-70.572;2022-12-29T00:48:11;26.20;33.20
74336;DHT22;62755;-33.398;-70.572;2022-12-29T00:50:40;26.10;32.90
74336;DHT22;62755;-33.398;-70.572;2022-12-29T00:53:09;26.10;33.00
74336;DHT22;62755;-33.398;-70.572;2022-12-29T00:55:40;26.10;33.00
74336;DHT22;62755;-33.398;-70.572;2022-12-29T00:58:09;26.10;33.10
74336;DHT22;62755;-33.398;-70.572;2022-12-29T01:00:39;26.10;33.10
74336;DHT22;62755;-33.398;-70.572;2022-12-29T01:03:09;26.10;33.10
74336;DHT22;62755;-33.398;-70.572;2022-12-29T01:05:38;26.10;33.20
74336;DHT22;62755;-33.398;-70.572;2022-12-29T01:08:08;26.00;33.20
74336;DHT22;62755;-33.398;-70.572;2022-12-29T01:10:39;26.00;33.30
74336;DHT22;62755;-33.398;-70.572;2022-12-29T01:13:08;26.10;33.50
74336;DHT22;62755;-33.398;-70.572;2022-12-29T01:15:37;26.00;33.40
74336;DHT22;62755;-33.398;-70.572;2022-12-29T01:18:07;26.00;33.40
74336;DHT22;62755;-33.398;-70.572;2022-12-29T01:20:37;26.00;33.40
74336;DHT22;62755;-33.398;-70.572;2022-12-29T01:23:06;26.00;33.40
74336;DHT22;62755;-33.398;-70.572;2022-12-29T01:25:36;26.00;33.50
74336;DHT22;62755;-33.398;-70.572;2022-12-29T01:28:07;26.00;33.50
74336;DHT22;62755;-33.398;-70.572;2022-12-29T01:30:37;26.00;33.80
74336;DHT22;62755;-33.398;-70.572;2022-12-29T01:33:06;26.00;33.70
74336;DHT22;62755;-33.398;-70.572;2022-12-29T01:35:36;25.80;33.80
74336;DHT22;62755;-33.398;-70.572;2022-12-29T01:38:06;25.80;33.90
74336;DHT22;62755;-33.398;-70.572;2022-12-29T01:40:44;25.80;33.90
74336;DHT22;62755;-33.398;-70.572;2022-12-29T01:43:15;25.80;34.00
74336;DHT22;62755;-33.398;-70.572;2022-12-29T01:45:47;25.70;33.90
74336;DHT22;62755;-33.398;-70.572;2022-12-29T01:48:18;25.60;34.00
74336;DHT22;62755;-33.398;-70.572;2022-12-29T01:50:52;25.60;34.00
74336;DHT22;62755;-33.398;-70.572;2022-12-29T01:53:27;25.60;34.10
74336;DHT22;62755;-33.398;-70.572;2022-12-29T01:56:01;25.70;34.00
74336;DHT22;62755;-33.398;-70.572;2022-12-29T01:58:43;25.70;33.90
74336;DHT22;62755;-33.398;-70.572;2022-12-29T02:01:15;25.70;34.00
74336;DHT22;62755;-33.398;-70.572;2022-12-29T02:03:48;25.60;33.90
74336;DHT22;62755;-33.398;-70.572;2022-12-29T02:06:22;25.60;33.90
74336;DHT22;62755;-33.398;-70.572;2022-12-29T02:08:54;25.60;34.00
74336;DHT22;62755;-33.398;-70.572;2022-12-29T02:11:26;25.60;34.10
74336;DHT22;62755;-33.398;-70.572;2022-12-29T02:13:58;25.60;34.00
74336;DHT22;62755;-33.398;-70.572;2022-12-29T02:16:37;25.60;34.00
74336;DHT22;62755;-33.398;-70.572;2022-12-29T02:19:35;25.50;34.10
74336;DHT22;62755;-33.398;-70.572;2022-12-29T02:22:19;25.50;34.30
74336;DHT22;62755;-33.398;-70.572;2022-12-29T02:25:22;25.40;34.40
74336;DHT22;62755;-33.398;-70.572;2022-12-29T02:31:04;25.50;34.60
74336;DHT22;62755;-33.398;-70.572;2022-12-29T02:33:46;25.50;34.60
74336;DHT22;62755;-33.398;-70.572;2022-12-29T02:36:27;25.50;34.40
74336;DHT22;62755;-33.398;-70.572;2022-12-29T02:39:04;25.60;34.40
74336;DHT22;62755;-33.398;-70.572;2022-12-29T02:41:44;25.60;34.40
74336;DHT22;62755;-33.398;-70.572;2022-12-29T02:44:24;25.60;34.40
74336;DHT22;62755;-33.398;-70.572;2022-12-29T02:47:00;25.60;34.50
74336;DHT22;62755;-33.398;-70.572;2022-12-29T02:49:36;25.50;34.50
74336;DHT22;62755;-33.398;-70.572;2022-12-29T02:52:10;25.40;34.70
74336;DHT22;62755;-33.398;-70.572;2022-12-29T02:54:41;25.50;34.80
74336;DHT22;62755;-33.398;-70.572;2022-12-29T02:57:26;25.40;34.60
74336;DHT22;62755;-33.398;-70.572;2022-12-29T02:59:58;25.30;35.00
74336;DHT22;62755;-33.398;-70.572;2022-12-29T03:05:45;25.30;35.80
74336;DHT22;62755;-33.398;-70.572;2022-12-29T03:08:27;25.20;35.70
74336;DHT22;62755;-33.398;-70.572;2022-12-29T03:11:01;25.20;35.80
74336;DHT22;62755;-33.398;-70.572;2022-12-29T03:13:39;25.20;35.80
74336;DHT22;62755;-33.398;-70.572;2022-12-29T03:16:31;25.10;36.00
74336;DHT22;62755;-33.398;-70.572;2022-12-29T03:19:07;25.10;36.20
74336;DHT22;62755;-33.398;-70.572;2022-12-29T03:21:39;25.10;36.20
74336;DHT22;62755;-33.398;-70.572;2022-12-29T03:24:28;25.10;36.30
74336;DHT22;62755;-33.398;-70.572;2022-12-29T03:27:00;24.90;36.30
74336;DHT22;62755;-33.398;-70.572;2022-12-29T03:29:35;24.80;36.50
74336;DHT22;62755;-33.398;-70.572;2022-12-29T03:32:05;24.70;36.50
74336;DHT22;62755;-33.398;-70.572;2022-12-29T03:34:39;24.70;36.40
74336;DHT22;62755;-33.398;-70.572;2022-12-29T03:37:11;24.80;36.30
74336;DHT22;62755;-33.398;-70.572;2022-12-29T03:39:42;24.70;36.40
74336;DHT22;62755;-33.398;-70.572;2022-12-29T03:42:14;24.80;36.20
74336;DHT22;62755;-33.398;-70.572;2022-12-29T03:44:45;24.80;36.20
74336;DHT22;62755;-33.398;-70.572;2022-12-29T03:47:15;24.90;36.00
74336;DHT22;62755;-33.398;-70.572;2022-12-29T03:49:47;25.00;35.90
74336;DHT22;62755;-33.398;-70.572;2022-12-29T03:52:17;25.00;36.00
74336;DHT22;62755;-33.398;-70.572;2022-12-29T03:54:47;25.00;35.90
74336;DHT22;62755;-33.398;-70.572;2022-12-29T03:57:16;24.90;36.00
74336;DHT22;62755;-33.398;-70.572;2022-12-29T03:59:46;24.80;36.20
74336;DHT22;62755;-33.398;-70.572;2022-12-29T04:02:16;24.80;36.00
74336;DHT22;62755;-33.398;-70.572;2022-12-29T04:04:47;24.80;35.80
74336;DHT22;62755;-33.398;-70.572;2022-12-29T04:07:16;24.80;35.80
74336;DHT22;62755;-33.398;-70.572;2022-12-29T04:09:46;24.80;36.00
74336;DHT22;62755;-33.398;-70.572;2022-12-29T04:12:15;24.80;36.10
74336;DHT22;62755;-33.398;-70.572;2022-12-29T04:14:45;24.80;36.20
74336;DHT22;62755;-33.398;-70.572;2022-12-29T04:17:15;24.80;36.30
74336;DHT22;62755;-33.398;-70.572;2022-12-29T04:19:46;24.70;36.40
74336;DHT22;62755;-33.398;-70.572;2022-12-29T04:22:16;24.80;36.90
74336;DHT22;62755;-33.398;-70.572;2022-12-29T04:24:46;24.80;36.90
74336;DHT22;62755;-33.398;-70.572;2022-12-29T04:27:15;24.80;36.60
74336;DHT22;62755;-33.398;-70.572;2022-12-29T04:29:45;24.80;36.70
74336;DHT22;62755;-33.398;-70.572;2022-12-29T04:32:15;24.80;36.90
74336;DHT22;62755;-33.398;-70.572;2022-12-29T04:34:47;24.80;36.90
74336;DHT22;62755;-33.398;-70.572;2022-12-29T04:37:17;24.80;37.20
74336;DHT22;62755;-33.398;-70.572;2022-12-29T04:39:46;24.70;37.30
74336;DHT22;62755;-33.398;-70.572;2022-12-29T04:42:16;24.70;37.30
74336;DHT22;62755;-33.398;-70.572;2022-12-29T04:44:46;24.70;37.20
74336;DHT22;62755;-33.398;-70.572;2022-12-29T04:47:15;24.70;36.90
74336;DHT22;62755;-33.398;-70.572;2022-12-29T04:49:47;24.70;36.90
74336;DHT22;62755;-33.398;-70.572;2022-12-29T04:52:16;24.70;36.80
74336;DHT22;62755;-33.398;-70.572;2022-12-29T04:54:46;24.60;36.90
74336;DHT22;62755;-33.398;-70.572;2022-12-29T04:57:15;24.60;36.90
74336;DHT22;62755;-33.398;-70.572;2022-12-29T04:59:45;24.50;36.50
74336;DHT22;62755;-33.398;-70.572;2022-12-29T05:02:15;24.50;36.70
74336;DHT22;62755;-33.398;-70.572;2022-12-29T05:04:46;24.50;36.60
74336;DHT22;62755;-33.398;-70.572;2022-12-29T05:07:16;24.50;36.40
74336;DHT22;62755;-33.398;-70.572;2022-12-29T05:09:45;24.40;36.40
74336;DHT22;62755;-33.398;-70.572;2022-12-29T05:12:15;24.50;36.20
74336;DHT22;62755;-33.398;-70.572;2022-12-29T05:14:45;24.40;36.30
74336;DHT22;62755;-33.398;-70.572;2022-12-29T05:17:14;24.40;36.20
74336;DHT22;62755;-33.398;-70.572;2022-12-29T05:19:44;24.40;36.20
74336;DHT22;62755;-33.398;-70.572;2022-12-29T05:22:15;24.40;36.20
74336;DHT22;62755;-33.398;-70.572;2022-12-29T05:24:45;24.40;36.20
74336;DHT22;62755;-33.398;-70.572;2022-12-29T05:27:14;24.20;36.20
74336;DHT22;62755;-33.398;-70.572;2022-12-29T05:29:44;24.20;36.20
74336;DHT22;62755;-33.398;-70.572;2022-12-29T05:32:13;24.10;36.20
74336;DHT22;62755;-33.398;-70.572;2022-12-29T05:34:43;24.10;36.20
74336;DHT22;62755;-33.398;-70.572;2022-12-29T05:37:15;24.20;36.30
74336;DHT22;62755;-33.398;-70.572;2022-12-29T05:39:44;24.20;36.40
74336;DHT22;62755;-33.398;-70.572;2022-12-29T05:42:14;24.20;36.60
74336;DHT22;62755;-33.398;-70.572;2022-12-29T05:44:43;24.20;36.90
74336;DHT22;62755;-33.398;-70.572;2022-12-29T05:47:13;24.20;37.00
74336;DHT22;62755;-33.398;-70.572;2022-12-29T05:49:43;24.20;36.90
74336;DHT22;62755;-33.398;-70.572;2022-12-29T05:52:14;24.20;36.90
74336;DHT22;62755;-33.398;-70.572;2022-12-29T05:54:44;24.20;36.90
74336;DHT22;62755;-33.398;-70.572;2022-12-29T05:57:13;24.20;36.90
74336;DHT22;62755;-33.398;-70.572;2022-12-29T05:59:43;24.10;36.70
74336;DHT22;62755;-33.398;-70.572;2022-12-29T06:02:12;24.10;36.80
74336;DHT22;62755;-33.398;-70.572;2022-12-29T06:04:42;24.10;36.50
74336;DHT22;62755;-33.398;-70.572;2022-12-29T06:07:12;24.00;36.30
74336;DHT22;62755;-33.398;-70.572;2022-12-29T06:09:43;24.00;36.20
74336;DHT22;62755;-33.398;-70.572;2022-12-29T06:12:13;24.00;36.20
74336;DHT22;62755;-33.398;-70.572;2022-12-29T06:14:42;24.00;36.20
74336;DHT22;62755;-33.398;-70.572;2022-12-29T06:17:12;24.00;36.20
74336;DHT22;62755;-33.398;-70.572;2022-12-29T06:19:41;24.00;36.20
74336;DHT22;62755;-33.398;-70.572;2022-12-29T06:22:11;24.00;36.20
74336;DHT22;62755;-33.398;-70.572;2022-12-29T06:24:42;23.90;36.20
74336;DHT22;62755;-33.398;-70.572;2022-12-29T06:27:12;23.90;36.10
74336;DHT22;62755;-33.398;-70.572;2022-12-29T06:29:42;23.90;36.30
74336;DHT22;62755;-33.398;-70.572;2022-12-29T06:32:12;23.80;36.30
74336;DHT22;62755;-33.398;-70.572;2022-12-29T06:34:44;23.90;36.30
74336;DHT22;62755;-33.398;-70.572;2022-12-29T06:37:14;23.80;36.10
74336;DHT22;62755;-33.398;-70.572;2022-12-29T06:39:45;23.80;36.20
74336;DHT22;62755;-33.398;-70.572;2022-12-29T06:42:15;23.80;36.20
74336;DHT22;62755;-33.398;-70.572;2022-12-29T06:44:44;23.70;36.40
74336;DHT22;62755;-33.398;-70.572;2022-12-29T06:47:14;23.70;36.60
74336;DHT22;62755;-33.398;-70.572;2022-12-29T06:49:43;23.80;36.80
74336;DHT22;62755;-33.398;-70.572;2022-12-29T06:52:13;23.80;36.80
74336;DHT22;62755;-33.398;-70.572;2022-12-29T06:54:44;23.80;36.80
74336;DHT22;62755;-33.398;-70.572;2022-12-29T06:57:14;23.80;36.70
74336;DHT22;62755;-33.398;-70.572;2022-12-29T06:59:43;23.80;36.40
74336;DHT22;62755;-33.398;-70.572;2022-12-29T07:02:13;23.70;36.30
74336;DHT22;62755;-33.398;-70.572;2022-12-29T07:04:45;23.60;36.30
74336;DHT22;62755;-33.398;-70.572;2022-12-29T07:07:15;23.60;36.40
74336;DHT22;62755;-33.398;-70.572;2022-12-29T07:09:46;23.50;36.40
74336;DHT22;62755;-33.398;-70.572;2022-12-29T07:12:16;23.40;36.40
74336;DHT22;62755;-33.398;-70.572;2022-12-29T07:14:46;23.30;36.30
74336;DHT22;62755;-33.398;-70.572;2022-12-29T07:17:16;23.30;36.40
74336;DHT22;62755;-33.398;-70.572;2022-12-29T07:19:45;23.20;36.50
74336;DHT22;62755;-33.398;-70.572;2022-12-29T07:22:15;23.20;36.40
74336;DHT22;62755;-33.398;-70.572;2022-12-29T07:24:46;23.20;36.30
74336;DHT22;62755;-33.398;-70.572;2022-12-29T07:27:16;23.20;36.30
74336;DHT22;62755;-33.398;-70.572;2022-12-29T07:29:46;23.10;36.40
74336;DHT22;62755;-33.398;-70.572;2022-12-29T07:32:15;23.10;36.40
74336;DHT22;62755;-33.398;-70.572;2022-12-29T07:34:45;23.20;36.30
74336;DHT22;62755;-33.398;-70.572;2022-12-29T07:37:16;23.20;36.30
74336;DHT22;62755;-33.398;-70.572;2022-12-29T07:39:47;23.10;36.30
74336;DHT22;62755;-33.398;-70.572;2022-12-29T07:42:17;23.10;36.20
74336;DHT22;62755;-33.398;-70.572;2022-12-29T07:44:47;23.10;36.30
74336;DHT22;62755;-33.398;-70.572;2022-12-29T07:47:16;23.10;36.30
74336;DHT22;62755;-33.398;-70.572;2022-12-29T07:49:46;23.20;36.30
74336;DHT22;62755;-33.398;-70.572;2022-12-29T07:52:15;23.20;36.50
74336;DHT22;62755;-33.398;-70.572;2022-12-29T07:54:47;23.20;36.60
74336;DHT22;62755;-33.398;-70.572;2022-12-29T07:57:16;23.20;36.50
74336;DHT22;62755;-33.398;-70.572;2022-12-29T07:59:46;23.10;36.50
74336;DHT22;62755;-33.398;-70.572;2022-12-29T08:02:15;23.00;36.50
74336;DHT22;62755;-33.398;-70.572;2022-12-29T08:04:45;23.00;36.30
74336;DHT22;62755;-33.398;-70.572;2022-12-29T08:07:15;23.00;36.20
74336;DHT22;62755;-33.398;-70.572;2022-12-29T08:09:46;23.00;36.20
74336;DHT22;62755;-33.398;-70.572;2022-12-29T08:12:16;23.00;36.10
74336;DHT22;62755;-33.398;-70.572;2022-12-29T08:14:46;22.90;36.10
74336;DHT22;62755;-33.398;-70.572;2022-12-29T08:17:16;22.90;36.20
74336;DHT22;62755;-33.398;-70.572;2022-12-29T08:19:45;23.00;36.20
74336;DHT22;62755;-33.398;-70.572;2022-12-29T08:22:15;23.00;36.20
74336;DHT22;62755;-33.398;-70.572;2022-12-29T08:24:47;23.00;36.10
74336;DHT22;62755;-33.398;-70.572;2022-12-29T08:27:17;23.10;35.90
74336;DHT22;62755;-33.398;-70.572;2022-12-29T08:29:47;23.00;35.80
74336;DHT22;62755;-33.398;-70.572;2022-12-29T08:32:17;23.00;35.80
74336;DHT22;62755;-33.398;-70.572;2022-12-29T08:34:47;23.00;36.00
74336;DHT22;62755;-33.398;-70.572;2022-12-29T08:37:16;23.00;35.90
74336;DHT22;62755;-33.398;-70.572;2022-12-29T08:39:48;23.00;36.20
74336;DHT22;62755;-33.398;-70.572;2022-12-29T08:42:18;23.00;36.30
74336;DHT22;62755;-33.398;-70.572;2022-12-29T08:44:47;23.00;36.30
74336;DHT22;62755;-33.398;-70.572;2022-12-29T08:47:17;23.00;36.30
74336;DHT22;62755;-33.398;-70.572;2022-12-29T08:49:47;23.00;36.30
74336;DHT22;62755;-33.398;-70.572;2022-12-29T08:52:16;23.00;36.50
74336;DHT22;62755;-33.398;-70.572;2022-12-29T08:54:46;23.10;36.50
74336;DHT22;62755;-33.398;-70.572;2022-12-29T08:57:17;23.10;36.20
74336;DHT22;62755;-33.398;-70.572;2022-12-29T08:59:47;23.10;36.10
74336;DHT22;62755;-33.398;-70.572;2022-12-29T09:02:16;23.00;35.90
74336;DHT22;62755;-33.398;-70.572;2022-12-29T09:04:46;23.00;35.90
74336;DHT22;62755;-33.398;-70.572;2022-12-29T09:07:16;23.00;36.00
74336;DHT22;62755;-33.398;-70.572;2022-12-29T09:09:45;22.90;35.90
74336;DHT22;62755;-33.398;-70.572;2022-12-29T09:12:17;22.80;36.20
74336;DHT22;62755;-33.398;-70.572;2022-12-29T09:14:47;22.80;36.00
74336;DHT22;62755;-33.398;-70.572;2022-12-29T09:17:17;22.90;36.50
74336;DHT22;62755;-33.398;-70.572;2022-12-29T09:20:03;22.80;36.40
74336;DHT22;62755;-33.398;-70.572;2022-12-29T09:22:33;22.90;36.30
74336;DHT22;62755;-33.398;-70.572;2022-12-29T09:25:03;22.80;36.50
74336;DHT22;62755;-33.398;-70.572;2022-12-29T09:27:34;22.90;36.50
74336;DHT22;62755;-33.398;-70.572;2022-12-29T09:30:06;22.90;36.40
74336;DHT22;62755;-33.398;-70.572;2022-12-29T09:32:36;22.90;36.30
74336;DHT22;62755;-33.398;-70.572;2022-12-29T09:35:06;23.00;36.30
74336;DHT22;62755;-33.398;-70.572;2022-12-29T09:37:36;22.90;36.20
74336;DHT22;62755;-33.398;-70.572;2022-12-29T09:40:06;23.00;36.00
74336;DHT22;62755;-33.398;-70.572;2022-12-29T09:42:41;23.00;36.10
74336;DHT22;62755;-33.398;-70.572;2022-12-29T09:45:15;23.00;35.70
74336;DHT22;62755;-33.398;-70.572;2022-12-29T09:47:46;23.00;35.70
74336;DHT22;62755;-33.398;-70.572;2022-12-29T09:50:22;23.00;35.90
74336;DHT22;62755;-33.398;-70.572;2022-12-29T09:52:58;23.00;35.80
74336;DHT22;62755;-33.398;-70.572;2022-12-29T09:55:34;22.90;35.90
74336;DHT22;62755;-33.398;-70.572;2022-12-29T09:58:12;22.90;35.80
74336;DHT22;62755;-33.398;-70.572;2022-12-29T10:00:48;22.90;35.80
74336;DHT22;62755;-33.398;-70.572;2022-12-29T10:03:20;22.90;36.00
74336;DHT22;62755;-33.398;-70.572;2022-12-29T10:05:55;22.90;36.30
74336;DHT22;62755;-33.398;-70.572;2022-12-29T10:08:33;22.80;36.50
74336;DHT22;62755;-33.398;-70.572;2022-12-29T10:11:21;22.80;36.60
74336;DHT22;62755;-33.398;-70.572;2022-12-29T10:13:58;22.80;36.60
74336;DHT22;62755;-33.398;-70.572;2022-12-29T10:16:34;22.80;36.70
74336;DHT22;62755;-33.398;-70.572;2022-12-29T10:22:09;22.80;36.60
74336;DHT22;62755;-33.398;-70.572;2022-12-29T10:24:43;22.70;36.80
74336;DHT22;62755;-33.398;-70.572;2022-12-29T10:27:14;22.80;36.50
74336;DHT22;62755;-33.398;-70.572;2022-12-29T10:29:49;22.80;36.20
74336;DHT22;62755;-33.398;-70.572;2022-12-29T10:32:30;22.90;36.10
74336;DHT22;62755;-33.398;-70.572;2022-12-29T10:35:05;22.90;36.20
74336;DHT22;62755;-33.398;-70.572;2022-12-29T10:37:41;23.00;36.30
74336;DHT22;62755;-33.398;-70.572;2022-12-29T10:40:18;23.00;36.10
74336;DHT22;62755;-33.398;-70.572;2022-12-29T10:42:52;23.10;35.80
74336;DHT22;62755;-33.398;-70.572;2022-12-29T10:45:27;23.10;35.70
74336;DHT22;62755;-33.398;-70.572;2022-12-29T10:48:01;23.10;35.70
74336;DHT22;62755;-33.398;-70.572;2022-12-29T10:50:32;23.20;35.70
74336;DHT22;62755;-33.398;-70.572;2022-12-29T10:53:04;23.20;35.70
74336;DHT22;62755;-33.398;-70.572;2022-12-29T10:55:36;23.30;35.70
74336;DHT22;62755;-33.398;-70.572;2022-12-29T10:58:10;23.30;35.50
74336;DHT22;62755;-33.398;-70.572;2022-12-29T11:00:43;23.40;35.50
74336;DHT22;62755;-33.398;-70.572;2022-12-29T11:03:39;23.40;35.50
74336;DHT22;62755;-33.398;-70.572;2022-12-29T11:06:13;23.40;35.20
74336;DHT22;62755;-33.398;-70.572;2022-12-29T11:08:52;23.50;35.40
74336;DHT22;62755;-33.398;-70.572;2022-12-29T11:11:27;23.50;35.40
74336;DHT22;62755;-33.398;-70.572;2022-12-29T11:14:11;23.60;35.20
74336;DHT22;62755;-33.398;-70.572;2022-12-29T11:16:43;23.60;34.90
74336;DHT22;62755;-33.398;-70.572;2022-12-29T11:19:23;23.60;34.80
74336;DHT22;62755;-33.398;-70.572;2022-12-29T11:21:52;23.60;34.40
74336;DHT22;62755;-33.398;-70.572;2022-12-29T11:24:24;23.60;34.40
74336;DHT22;62755;-33.398;-70.572;2022-12-29T11:26:55;23.60;33.60
74336;DHT22;62755;-33.398;-70.572;2022-12-29T11:29:39;23.60;34.00
74336;DHT22;62755;-33.398;-70.572;2022-12-29T11:32:17;23.70;33.70
74336;DHT22;62755;-33.398;-70.572;2022-12-29T11:34:47;23.80;33.70
74336;DHT22;62755;-33.398;-70.572;2022-12-29T11:37:18;23.80;33.70
74336;DHT22;62755;-33.398;-70.572;2022-12-29T11:39:51;23.80;33.60
74336;DHT22;62755;-33.398;-70.572;2022-12-29T11:42:28;23.90;33.70
74336;DHT22;62755;-33.398;-70.572;2022-12-29T11:45:04;23.90;33.50
74336;DHT22;62755;-33.398;-70.572;2022-12-29T11:47:37;23.90;33.70
74336;DHT22;62755;-33.398;-70.572;2022-12-29T11:50:08;24.00;33.80
74336;DHT22;62755;-33.398;-70.572;2022-12-29T11:52:45;24.00;34.10
74336;DHT22;62755;-33.398;-70.572;2022-12-29T11:55:19;24.00;34.30
74336;DHT22;62755;-33.398;-70.572;2022-12-29T11:57:51;24.00;34.60
74336;DHT22;62755;-33.398;-70.572;2022-12-29T12:00:22;24.00;34.70
74336;DHT22;62755;-33.398;-70.572;2022-12-29T12:02:58;24.10;34.70
74336;DHT22;62755;-33.398;-70.572;2022-12-29T12:05:37;24.20;34.80
74336;DHT22;62755;-33.398;-70.572;2022-12-29T12:08:14;24.20;34.80
74336;DHT22;62755;-33.398;-70.572;2022-12-29T12:10:47;24.20;34.70
74336;DHT22;62755;-33.398;-70.572;2022-12-29T12:13:22;24.20;34.70
74336;DHT22;62755;-33.398;-70.572;2022-12-29T12:15:57;24.20;35.20
74336;DHT22;62755;-33.398;-70.572;2022-12-29T12:18:44;24.20;35.40
74336;DHT22;62755;-33.398;-70.572;2022-12-29T12:21:20;24.30;35.50
74336;DHT22;62755;-33.398;-70.572;2022-12-29T12:24:22;24.30;35.20
74336;DHT22;62755;-33.398;-70.572;2022-12-29T12:27:01;24.40;35.10
74336;DHT22;62755;-33.398;-70.572;2022-12-29T12:29:38;24.40;34.90
74336;DHT22;62755;-33.398;-70.572;2022-12-29T12:32:13;24.40;34.80
74336;DHT22;62755;-33.398;-70.572;2022-12-29T12:34:47;24.30;35.10
74336;DHT22;62755;-33.398;-70.572;2022-12-29T12:37:31;24.40;35.10
74336;DHT22;62755;-33.398;-70.572;2022-12-29T12:43:17;24.50;34.80
74336;DHT22;62755;-33.398;-70.572;2022-12-29T12:45:52;24.50;34.90
74336;DHT22;62755;-33.398;-70.572;2022-12-29T12:48:38;24.50;35.00
74336;DHT22;62755;-33.398;-70.572;2022-12-29T12:51:19;24.60;35.00
74336;DHT22;62755;-33.398;-70.572;2022-12-29T12:54:06;24.60;34.90
74336;DHT22;62755;-33.398;-70.572;2022-12-29T12:56:47;24.70;34.90
74336;DHT22;62755;-33.398;-70.572;2022-12-29T12:59:32;24.70;34.80
74336;DHT22;62755;-33.398;-70.572;2022-12-29T13:02:12;24.80;34.50
74336;DHT22;62755;-33.398;-70.572;2022-12-29T13:05:02;24.80;34.40
74336;DHT22;62755;-33.398;-70.572;2022-12-29T13:07:44;24.90;33.90
74336;DHT22;62755;-33.398;-70.572;2022-12-29T13:10:23;25.00;33.80
74336;DHT22;62755;-33.398;-70.572;2022-12-29T13:13:06;25.00;34.10
74336;DHT22;62755;-33.398;-70.572;2022-12-29T13:15:46;25.00;34.20
74336;DHT22;62755;-33.398;-70.572;2022-12-29T13:18:23;25.00;34.30
74336;DHT22;62755;-33.398;-70.572;2022-12-29T13:20:59;25.00;34.30
74336;DHT22;62755;-33.398;-70.572;2022-12-29T13:23:38;25.00;34.30
74336;DHT22;62755;-33.398;-70.572;2022-12-29T13:26:14;25.20;34.20
74336;DHT22;62755;-33.398;-70.572;2022-12-29T13:28:52;25.20;34.10
74336;DHT22;62755;-33.398;-70.572;2022-12-29T13:31:32;25.20;34.20
74336;DHT22;62755;-33.398;-70.572;2022-12-29T13:34:11;25.30;34.20
74336;DHT22;62755;-33.398;-70.572;2022-12-29T13:36:49;25.40;33.90
74336;DHT22;62755;-33.398;-70.572;2022-12-29T13:39:26;25.40;33.90
74336;DHT22;62755;-33.398;-70.572;2022-12-29T13:41:57;25.40;34.00
74336;DHT22;62755;-33.398;-70.572;2022-12-29T13:44:30;25.50;34.00
74336;DHT22;62755;-33.398;-70.572;2022-12-29T13:47:02;25.50;34.00
74336;DHT22;62755;-33.398;-70.572;2022-12-29T13:49:36;25.60;33.90
74336;DHT22;62755;-33.398;-70.572;2022-12-29T13:52:12;25.60;33.70
74336;DHT22;62755;-33.398;-70.572;2022-12-29T13:54:48;25.60;33.60
74336;DHT22;62755;-33.398;-70.572;2022-12-29T13:57:34;25.60;33.60
74336;DHT22;62755;-33.398;-70.572;2022-12-29T14:00:12;25.60;33.40
74336;DHT22;62755;-33.398;-70.572;2022-12-29T14:02:56;25.70;33.40
74336;DHT22;62755;-33.398;-70.572;2022-12-29T14:05:32;25.70;33.20
74336;DHT22;62755;-33.398;-70.572;2022-12-29T14:08:03;25.70;33.40
74336;DHT22;62755;-33.398;-70.572;2022-12-29T14:10:36;25.70;33.40
74336;DHT22;62755;-33.398;-70.572;2022-12-29T14:13:10;25.80;33.10
74336;DHT22;62755;-33.398;-70.572;2022-12-29T14:15:43;25.80;33.20
74336;DHT22;62755;-33.398;-70.572;2022-12-29T14:18:16;25.90;33.10
74336;DHT22;62755;-33.398;-70.572;2022-12-29T14:20:55;26.00;33.20
74336;DHT22;62755;-33.398;-70.572;2022-12-29T14:23:36;26.00;32.80
74336;DHT22;62755;-33.398;-70.572;2022-12-29T14:26:16;26.10;32.80
74336;DHT22;62755;-33.398;-70.572;2022-12-29T14:28:47;26.10;33.00
74336;DHT22;62755;-33.398;-70.572;2022-12-29T14:31:34;26.20;33.00
74336;DHT22;62755;-33.398;-70.572;2022-12-29T14:34:29;26.20;32.70
74336;DHT22;62755;-33.398;-70.572;2022-12-29T14:37:00;26.30;32.70
74336;DHT22;62755;-33.398;-70.572;2022-12-29T14:39:37;26.30;32.80
74336;DHT22;62755;-33.398;-70.572;2022-12-29T14:42:13;26.30;32.80
74336;DHT22;62755;-33.398;-70.572;2022-12-29T14:44:49;26.40;32.70
74336;DHT22;62755;-33.398;-70.572;2022-12-29T14:47:22;26.40;32.80
74336;DHT22;62755;-33.398;-70.572;2022-12-29T14:49:55;26.50;32.60
74336;DHT22;62755;-33.398;-70.572;2022-12-29T14:52:26;26.50;32.70
74336;DHT22;62755;-33.398;-70.572;2022-12-29T14:54:58;26.50;32.80
74336;DHT22;62755;-33.398;-70.572;2022-12-29T14:57:34;26.60;32.80
74336;DHT22;62755;-33.398;-70.572;2022-12-29T15:00:18;26.70;32.50
74336;DHT22;62755;-33.398;-70.572;2022-12-29T15:02:52;26.80;32.10
74336;DHT22;62755;-33.398;-70.572;2022-12-29T15:05:33;26.80;32.10
74336;DHT22;62755;-33.398;-70.572;2022-12-29T15:08:04;26.90;32.10
74336;DHT22;62755;-33.398;-70.572;2022-12-29T15:10:39;26.90;32.40
74336;DHT22;62755;-33.398;-70.572;2022-12-29T15:13:23;26.90;32.30
74336;DHT22;62755;-33.398;-70.572;2022-12-29T15:15:54;27.00;32.30
74336;DHT22;62755;-33.398;-70.572;2022-12-29T15:18:28;27.10;32.20
74336;DHT22;62755;-33.398;-70.572;2022-12-29T15:21:00;27.10;32.30
74336;DHT22;62755;-33.398;-70.572;2022-12-29T15:23:31;27.10;32.30
74336;DHT22;62755;-33.398;-70.572;2022-12-29T15:26:05;27.20;32.30
74336;DHT22;62755;-33.398;-70.572;2022-12-29T15:28:41;27.20;32.00
74336;DHT22;62755;-33.398;-70.572;2022-12-29T15:31:14;27.30;31.90
74336;DHT22;62755;-33.398;-70.572;2022-12-29T15:33:45;27.30;32.00
74336;DHT22;62755;-33.398;-70.572;2022-12-29T15:36:19;27.40;31.90
74336;DHT22;62755;-33.398;-70.572;2022-12-29T15:38:49;27.40;31.60